sensor_id;sensor_type;location;lat;lon;timestamp;pressure;altitude;pressure_sealevel;temperature
15709;BMP180;7954;51.914;8.420;2023-02-03T00:01:25;100954.53;;;13.96
15709;BMP180;7954;51.914;8.420;2023-02-03T00:03:53;100943.78;;;14.08
15709;BMP180;7954;51.914;8.420;2023-02-03T00:06:22;100958.66;;;13.95
15709;BMP180;7954;51.914;8.420;2023-02-03T00:08:52;100963.03;;;13.91
15709;BMP180;7954;51.914;8.420;2023-02-03T00:11:20;100954.66;;;14.07
15709;BMP180;7954;51.914;8.420;2023-02-03T00:13:48;100944.19;;;14.00
15709;BMP180;7954;51.914;8.420;2023-02-03T00:16:16;100960.28;;;13.95
15709;BMP180;7954;51.914;8.420;2023-02-03T00:18:44;100935.09;;;13.91
15709;BMP180;7954;51.914;8.420;2023-02-03T00:21:12;100934.47;;;13.97
15709;BMP180;7954;51.914;8.420;2023-02-03T00:23:42;100948.03;;;13.92
15709;BMP180;7954;51.914;8.420;2023-02-03T00:26:11;100940.06;;;13.80
15709;BMP180;7954;51.914;8.420;2023-02-03T00:28:40;100927.59;;;14.02
15709;BMP180;7954;51.914;8.420;2023-02-03T00:31:13;100945.59;;;14.03
15709;BMP180;7954;51.914;8.420;2023-02-03T00:33:41;100946.28;;;14.02
15709;BMP180;7954;51.914;8.420;2023-02-03T00:36:11;100930.06;;;14.16
15709;BMP180;7954;51.914;8.420;2023-02-03T00:38:39;100943.88;;;14.13
15709;BMP180;7954;51.914;8.420;2023-02-03T00:41:08;100939.66;;;14.08
15709;BMP180;7954;51.914;8.420;2023-02-03T00:43:36;100941.44;;;14.24
15709;BMP180;7954;51.914;8.420;2023-02-03T00:46:04;100940.53;;;14.03
15709;BMP180;7954;51.914;8.420;2023-02-03T00:48:32;100952.69;;;13.95
15709;BMP180;7954;51.914;8.420;2023-02-03T00:51:00;100942.56;;;14.00
15709;BMP180;7954;51.914;8.420;2023-02-03T00:53:28;100939.16;;;14.05
15709;BMP180;7954;51.914;8.420;2023-02-03T00:55:56;100939.72;;;14.13
15709;BMP180;7954;51.914;8.420;2023-02-03T00:58:25;100946.88;;;14.11
15709;BMP180;7954;51.914;8.420;2023-02-03T01:00:53;100952.19;;;14.12
15709;BMP180;7954;51.914;8.420;2023-02-03T01:03:22;100950.38;;;14.16
15709;BMP180;7954;51.914;8.420;2023-02-03T01:05:50;100955.94;;;14.19
15709;BMP180;7954;51.914;8.420;2023-02-03T01:08:18;100969.31;;;14.18
15709;BMP180;7954;51.914;8.420;2023-02-03T01:10:46;100976.63;;;13.91
15709;BMP180;7954;51.914;8.420;2023-02-03T01:13:14;100979.34;;;14.08
15709;BMP180;7954;51.914;8.420;2023-02-03T01:15:47;100976.38;;;14.10
15709;BMP180;7954;51.914;8.420;2023-02-03T01:18:15;100972.09;;;14.20
15709;BMP180;7954;51.914;8.420;2023-02-03T01:20:43;100988.84;;;14.09
15709;BMP180;7954;51.914;8.420;2023-02-03T01:23:11;100963.41;;;14.29
15709;BMP180;7954;51.914;8.420;2023-02-03T01:25:41;100964.81;;;14.32
15709;BMP180;7954;51.914;8.420;2023-02-03T01:28:08;100955.63;;;14.38
15709;BMP180;7954;51.914;8.420;2023-02-03T01:30:36;100956.41;;;14.22
15709;BMP180;7954;51.914;8.420;2023-02-03T01:33:06;100972.06;;;14.14
15709;BMP180;7954;51.914;8.420;2023-02-03T01:35:34;100979.25;;;13.97
15709;BMP180;7954;51.914;8.420;2023-02-03T01:38:02;100972.50;;;14.12
15709;BMP180;7954;51.914;8.420;2023-02-03T01:40:30;100975.34;;;14.19
15709;BMP180;7954;51.914;8.420;2023-02-03T01:42:58;100972.03;;;14.09
15709;BMP180;7954;51.914;8.420;2023-02-03T01:45:25;100969.97;;;14.12
15709;BMP180;7954;51.914;8.420;2023-02-03T01:47:54;100967.31;;;14.27
15709;BMP180;7954;51.914;8.420;2023-02-03T01:50:28;100969.41;;;14.29
15709;BMP180;7954;51.914;8.420;2023-02-03T01:53:01;100960.72;;;14.13
15709;BMP180;7954;51.914;8.420;2023-02-03T01:55:33;100959.72;;;14.07
15709;BMP180;7954;51.914;8.420;2023-02-03T01:58:06;100959.22;;;14.24
15709;BMP180;7954;51.914;8.420;2023-02-03T02:00:35;100958.94;;;14.22
15709;BMP180;7954;51.914;8.420;2023-02-03T02:03:03;100961.56;;;14.28
15709;BMP180;7954;51.914;8.420;2023-02-03T02:05:37;100958.78;;;14.26
15709;BMP180;7954;51.914;8.420;2023-02-03T02:08:06;100952.53;;;14.30
15709;BMP180;7954;51.914;8.420;2023-02-03T02:10:35;100950.25;;;14.06
15709;BMP180;7954;51.914;8.420;2023-02-03T02:13:03;100941.00;;;14.06
15709;BMP180;7954;51.914;8.420;2023-02-03T02:15:39;100929.69;;;14.30
15709;BMP180;7954;51.914;8.420;2023-02-03T02:18:19;100916.97;;;14.30
15709;BMP180;7954;51.914;8.420;2023-02-03T02:21:10;100893.84;;;14.54
15709;BMP180;7954;51.914;8.420;2023-02-03T02:38:26;100858.06;;;14.21
15709;BMP180;7954;51.914;8.420;2023-02-03T02:48:34;100866.84;;;14.23
15709;BMP180;7954;51.914;8.420;2023-02-03T02:54:51;100877.97;;;14.29
15709;BMP180;7954;51.914;8.420;2023-02-03T02:57:23;100891.59;;;14.30
15709;BMP180;7954;51.914;8.420;2023-02-03T02:59:52;100902.06;;;14.42
15709;BMP180;7954;51.914;8.420;2023-02-03T03:02:30;100917.75;;;14.40
15709;BMP180;7954;51.914;8.420;2023-02-03T03:08:50;100911.22;;;14.31
15709;BMP180;7954;51.914;8.420;2023-02-03T03:11:23;100911.22;;;14.31
15709;BMP180;7954;51.914;8.420;2023-02-03T03:25:17;100871.47;;;14.26
15709;BMP180;7954;51.914;8.420;2023-02-03T03:27:49;100884.47;;;14.33
15709;BMP180;7954;51.914;8.420;2023-02-03T03:34:06;100869.97;;;14.43
15709;BMP180;7954;51.914;8.420;2023-02-03T03:40:32;100860.97;;;14.45
15709;BMP180;7954;51.914;8.420;2023-02-03T03:43:09;100885.16;;;14.32
15709;BMP180;7954;51.914;8.420;2023-02-03T03:45:50;100876.63;;;14.37
15709;BMP180;7954;51.914;8.420;2023-02-03T03:48:27;100879.72;;;14.51
15709;BMP180;7954;51.914;8.420;2023-02-03T03:51:01;100880.06;;;14.69
15709;BMP180;7954;51.914;8.420;2023-02-03T03:53:33;100871.25;;;14.67
15709;BMP180;7954;51.914;8.420;2023-02-03T03:56:06;100887.34;;;14.51
15709;BMP180;7954;51.914;8.420;2023-02-03T03:58:43;100866.91;;;14.34
15709;BMP180;7954;51.914;8.420;2023-02-03T04:01:15;100849.66;;;14.43
15709;BMP180;7954;51.914;8.420;2023-02-03T04:04:01;100862.81;;;14.46
15709;BMP180;7954;51.914;8.420;2023-02-03T04:06:43;100843.00;;;14.49
15709;BMP180;7954;51.914;8.420;2023-02-03T04:09:12;100844.56;;;14.43
15709;BMP180;7954;51.914;8.420;2023-02-03T04:23:08;100845.78;;;14.56
15709;BMP180;7954;51.914;8.420;2023-02-03T04:29:19;100860.34;;;14.20
15709;BMP180;7954;51.914;8.420;2023-02-03T04:31:47;100854.66;;;14.32
15709;BMP180;7954;51.914;8.420;2023-02-03T04:34:14;100860.31;;;14.14
15709;BMP180;7954;51.914;8.420;2023-02-03T04:36:48;100875.56;;;14.14
15709;BMP180;7954;51.914;8.420;2023-02-03T04:43:06;100870.06;;;14.22
15709;BMP180;7954;51.914;8.420;2023-02-03T04:45:38;100874.25;;;14.64
15709;BMP180;7954;51.914;8.420;2023-02-03T04:48:08;100847.19;;;14.54
15709;BMP180;7954;51.914;8.420;2023-02-03T04:50:36;100850.31;;;14.42
15709;BMP180;7954;51.914;8.420;2023-02-03T04:53:09;100852.34;;;14.76
15709;BMP180;7954;51.914;8.420;2023-02-03T04:55:38;100847.22;;;14.65
15709;BMP180;7954;51.914;8.420;2023-02-03T05:02:03;100819.91;;;14.58
15709;BMP180;7954;51.914;8.420;2023-02-03T05:04:39;100815.56;;;14.63
15709;BMP180;7954;51.914;8.420;2023-02-03T05:10:56;100796.81;;;14.62
15709;BMP180;7954;51.914;8.420;2023-02-03T05:13:32;100799.19;;;14.66
15709;BMP180;7954;51.914;8.420;2023-02-03T05:16:02;100799.19;;;14.66
15709;BMP180;7954;51.914;8.420;2023-02-03T05:18:44;100799.00;;;14.81
15709;BMP180;7954;51.914;8.420;2023-02-03T05:25:27;100791.28;;;14.65
15709;BMP180;7954;51.914;8.420;2023-02-03T05:28:05;100790.38;;;14.64
15709;BMP180;7954;51.914;8.420;2023-02-03T05:30:38;100795.00;;;14.61
15709;BMP180;7954;51.914;8.420;2023-02-03T05:33:07;100821.09;;;14.60
15709;BMP180;7954;51.914;8.420;2023-02-03T05:39:26;100793.09;;;14.55
15709;BMP180;7954;51.914;8.420;2023-02-03T05:41:55;100806.06;;;14.56
15709;BMP180;7954;51.914;8.420;2023-02-03T05:44:25;100772.59;;;14.59
15709;BMP180;7954;51.914;8.420;2023-02-03T05:46:56;100786.66;;;14.57
15709;BMP180;7954;51.914;8.420;2023-02-03T05:49:24;100778.59;;;14.65
15709;BMP180;7954;51.914;8.420;2023-02-03T05:51:55;100804.28;;;14.72
15709;BMP180;7954;51.914;8.420;2023-02-03T05:54:23;100790.31;;;14.53
15709;BMP180;7954;51.914;8.420;2023-02-03T05:56:52;100790.56;;;14.55
15709;BMP180;7954;51.914;8.420;2023-02-03T05:59:20;100801.91;;;14.57
15709;BMP180;7954;51.914;8.420;2023-02-03T06:01:48;100803.72;;;14.52
15709;BMP180;7954;51.914;8.420;2023-02-03T06:04:16;100806.06;;;14.62
15709;BMP180;7954;51.914;8.420;2023-02-03T06:06:44;100792.19;;;14.49
15709;BMP180;7954;51.914;8.420;2023-02-03T06:09:14;100795.91;;;14.62
15709;BMP180;7954;51.914;8.420;2023-02-03T06:11:46;100796.38;;;14.65
15709;BMP180;7954;51.914;8.420;2023-02-03T06:14:16;100796.41;;;14.76
15709;BMP180;7954;51.914;8.420;2023-02-03T06:16:45;100795.97;;;14.73
15709;BMP180;7954;51.914;8.420;2023-02-03T06:19:15;100791.56;;;14.66
15709;BMP180;7954;51.914;8.420;2023-02-03T06:21:43;100797.31;;;14.71
15709;BMP180;7954;51.914;8.420;2023-02-03T06:24:13;100804.91;;;14.60
15709;BMP180;7954;51.914;8.420;2023-02-03T06:26:41;100798.41;;;14.51
15709;BMP180;7954;51.914;8.420;2023-02-03T06:29:09;100803.47;;;14.51
15709;BMP180;7954;51.914;8.420;2023-02-03T06:31:51;100822.44;;;14.16
15709;BMP180;7954;51.914;8.420;2023-02-03T06:34:20;100817.88;;;14.19
15709;BMP180;7954;51.914;8.420;2023-02-03T06:36:51;100830.13;;;14.21
15709;BMP180;7954;51.914;8.420;2023-02-03T06:39:22;100805.56;;;14.11
15709;BMP180;7954;51.914;8.420;2023-02-03T06:41:53;100817.03;;;14.04
15709;BMP180;7954;51.914;8.420;2023-02-03T06:44:22;100810.28;;;13.99
15709;BMP180;7954;51.914;8.420;2023-02-03T06:46:55;100822.63;;;13.81
15709;BMP180;7954;51.914;8.420;2023-02-03T06:49:25;100805.69;;;13.70
15709;BMP180;7954;51.914;8.420;2023-02-03T06:51:54;100844.06;;;13.51
15709;BMP180;7954;51.914;8.420;2023-02-03T06:54:24;100821.03;;;13.55
15709;BMP180;7954;51.914;8.420;2023-02-03T06:56:51;100815.06;;;13.60
15709;BMP180;7954;51.914;8.420;2023-02-03T06:59:22;100814.97;;;13.75
15709;BMP180;7954;51.914;8.420;2023-02-03T07:01:56;100824.06;;;13.84
15709;BMP180;7954;51.914;8.420;2023-02-03T07:04:28;100824.13;;;13.95
15709;BMP180;7954;51.914;8.420;2023-02-03T07:10:39;100832.72;;;13.75
15709;BMP180;7954;51.914;8.420;2023-02-03T07:13:07;100814.78;;;13.79
15709;BMP180;7954;51.914;8.420;2023-02-03T07:15:35;100823.47;;;13.70
15709;BMP180;7954;51.914;8.420;2023-02-03T07:18:08;100816.06;;;13.66
15709;BMP180;7954;51.914;8.420;2023-02-03T07:21:05;100808.31;;;13.81
15709;BMP180;7954;51.914;8.420;2023-02-03T07:27:52;100802.22;;;13.64
15709;BMP180;7954;51.914;8.420;2023-02-03T07:37:57;100813.31;;;13.70
15709;BMP180;7954;51.914;8.420;2023-02-03T07:47:55;100808.69;;;13.68
15709;BMP180;7954;51.914;8.420;2023-02-03T07:50:24;100796.72;;;13.72
15709;BMP180;7954;51.914;8.420;2023-02-03T07:52:53;100796.38;;;13.86
15709;BMP180;7954;51.914;8.420;2023-02-03T07:55:26;100784.00;;;13.98
15709;BMP180;7954;51.914;8.420;2023-02-03T07:57:55;100790.75;;;13.77
15709;BMP180;7954;51.914;8.420;2023-02-03T08:00:28;100794.50;;;13.85
15709;BMP180;7954;51.914;8.420;2023-02-03T08:02:56;100783.63;;;13.80
15709;BMP180;7954;51.914;8.420;2023-02-03T08:05:25;100791.94;;;13.79
15709;BMP180;7954;51.914;8.420;2023-02-03T08:07:56;100780.63;;;13.77
15709;BMP180;7954;51.914;8.420;2023-02-03T08:10:28;100788.44;;;13.73
15709;BMP180;7954;51.914;8.420;2023-02-03T08:12:58;100794.28;;;13.57
15709;BMP180;7954;51.914;8.420;2023-02-03T08:15:26;100792.44;;;13.88
15709;BMP180;7954;51.914;8.420;2023-02-03T08:17:54;100801.25;;;13.95
15709;BMP180;7954;51.914;8.420;2023-02-03T08:20:24;100798.09;;;14.02
15709;BMP180;7954;51.914;8.420;2023-02-03T08:22:54;100787.22;;;13.97
15709;BMP180;7954;51.914;8.420;2023-02-03T08:25:22;100803.47;;;13.83
15709;BMP180;7954;51.914;8.420;2023-02-03T08:28:01;100795.84;;;13.77
15709;BMP180;7954;51.914;8.420;2023-02-03T08:30:32;100795.94;;;13.88
15709;BMP180;7954;51.914;8.420;2023-02-03T08:36:45;100803.66;;;13.73
15709;BMP180;7954;51.914;8.420;2023-02-03T08:43:03;100804.69;;;13.90
15709;BMP180;7954;51.914;8.420;2023-02-03T08:45:31;100787.00;;;14.01
15709;BMP180;7954;51.914;8.420;2023-02-03T08:48:00;100791.41;;;14.02
15709;BMP180;7954;51.914;8.420;2023-02-03T08:50:30;100800.16;;;13.99
15709;BMP180;7954;51.914;8.420;2023-02-03T08:52:59;100806.03;;;13.83
15709;BMP180;7954;51.914;8.420;2023-02-03T08:55:27;100804.56;;;13.74
15709;BMP180;7954;51.914;8.420;2023-02-03T08:57:55;100789.97;;;13.93
15709;BMP180;7954;51.914;8.420;2023-02-03T09:00:25;100790.22;;;14.00
15709;BMP180;7954;51.914;8.420;2023-02-03T09:02:55;100773.75;;;14.13
15709;BMP180;7954;51.914;8.420;2023-02-03T09:05:23;100771.06;;;14.28
15709;BMP180;7954;51.914;8.420;2023-02-03T09:07:50;100770.53;;;14.19
15709;BMP180;7954;51.914;8.420;2023-02-03T09:10:19;100765.06;;;14.33
15709;BMP180;7954;51.914;8.420;2023-02-03T09:12:47;100745.25;;;14.41
15709;BMP180;7954;51.914;8.420;2023-02-03T09:15:15;100745.47;;;14.43
15709;BMP180;7954;51.914;8.420;2023-02-03T09:17:45;100767.31;;;14.20
15709;BMP180;7954;51.914;8.420;2023-02-03T09:20:14;100770.25;;;14.13
15709;BMP180;7954;51.914;8.420;2023-02-03T09:22:43;100781.72;;;14.05
15709;BMP180;7954;51.914;8.420;2023-02-03T09:25:11;100775.41;;;14.23
15709;BMP180;7954;51.914;8.420;2023-02-03T09:27:39;100789.44;;;14.16
15709;BMP180;7954;51.914;8.420;2023-02-03T09:30:07;100783.03;;;13.92
15709;BMP180;7954;51.914;8.420;2023-02-03T09:32:35;100802.47;;;14.03
15709;BMP180;7954;51.914;8.420;2023-02-03T09:35:06;100805.78;;;13.81
15709;BMP180;7954;51.914;8.420;2023-02-03T09:37:34;100799.56;;;13.79
15709;BMP180;7954;51.914;8.420;2023-02-03T09:40:09;100807.50;;;13.92
15709;BMP180;7954;51.914;8.420;2023-02-03T09:42:56;100791.81;;;13.94
15709;BMP180;7954;51.914;8.420;2023-02-03T09:45:26;100785.41;;;14.02
15709;BMP180;7954;51.914;8.420;2023-02-03T09:47:58;100803.97;;;14.12
15709;BMP180;7954;51.914;8.420;2023-02-03T09:50:32;100794.16;;;13.98
15709;BMP180;7954;51.914;8.420;2023-02-03T09:53:05;100791.00;;;14.10
15709;BMP180;7954;51.914;8.420;2023-02-03T09:55:38;100780.91;;;14.15
15709;BMP180;7954;51.914;8.420;2023-02-03T09:58:09;100794.25;;;14.09
15709;BMP180;7954;51.914;8.420;2023-02-03T10:00:41;100783.56;;;14.01
15709;BMP180;7954;51.914;8.420;2023-02-03T10:03:20;100777.25;;;14.24
15709;BMP180;7954;51.914;8.420;2023-02-03T10:06:15;100784.66;;;14.23
15709;BMP180;7954;51.914;8.420;2023-02-03T10:08:58;100777.91;;;14.18
15709;BMP180;7954;51.914;8.420;2023-02-03T10:11:49;100775.47;;;14.34
15709;BMP180;7954;51.914;8.420;2023-02-03T10:14:29;100792.34;;;14.34
15709;BMP180;7954;51.914;8.420;2023-02-03T10:17:13;100777.28;;;14.30
15709;BMP180;7954;51.914;8.420;2023-02-03T10:19:47;100785.81;;;13.94
15709;BMP180;7954;51.914;8.420;2023-02-03T10:22:21;100772.19;;;14.30
15709;BMP180;7954;51.914;8.420;2023-02-03T10:24:53;100801.25;;;14.21
15709;BMP180;7954;51.914;8.420;2023-02-03T10:27:23;100810.28;;;13.93
15709;BMP180;7954;51.914;8.420;2023-02-03T10:29:56;100818.31;;;14.16
15709;BMP180;7954;51.914;8.420;2023-02-03T10:32:26;100815.19;;;14.34
15709;BMP180;7954;51.914;8.420;2023-02-03T10:34:56;100841.00;;;14.26
15709;BMP180;7954;51.914;8.420;2023-02-03T10:37:29;100834.75;;;14.24
15709;BMP180;7954;51.914;8.420;2023-02-03T10:39:58;100844.84;;;14.13
15709;BMP180;7954;51.914;8.420;2023-02-03T10:42:29;100832.81;;;14.12
15709;BMP180;7954;51.914;8.420;2023-02-03T10:45:25;100858.75;;;14.20
15709;BMP180;7954;51.914;8.420;2023-02-03T10:47:54;100833.69;;;14.07
15709;BMP180;7954;51.914;8.420;2023-02-03T10:50:26;100825.75;;;14.26
15709;BMP180;7954;51.914;8.420;2023-02-03T10:53:19;100829.94;;;14.31
15709;BMP180;7954;51.914;8.420;2023-02-03T10:55:50;100826.25;;;14.34
15709;BMP180;7954;51.914;8.420;2023-02-03T10:58:24;100819.31;;;14.33
15709;BMP180;7954;51.914;8.420;2023-02-03T11:01:05;100821.25;;;14.45
15709;BMP180;7954;51.914;8.420;2023-02-03T11:03:34;100826.72;;;14.32
15709;BMP180;7954;51.914;8.420;2023-02-03T11:06:08;100830.28;;;14.49
15709;BMP180;7954;51.914;8.420;2023-02-03T11:08:39;100827.41;;;14.31
15709;BMP180;7954;51.914;8.420;2023-02-03T11:11:08;100829.03;;;14.30
15709;BMP180;7954;51.914;8.420;2023-02-03T11:13:40;100834.41;;;14.43
15709;BMP180;7954;51.914;8.420;2023-02-03T11:16:13;100826.34;;;14.45
15709;BMP180;7954;51.914;8.420;2023-02-03T11:18:50;100838.31;;;14.41
15709;BMP180;7954;51.914;8.420;2023-02-03T11:21:20;100821.19;;;14.40
15709;BMP180;7954;51.914;8.420;2023-02-03T11:23:53;100833.47;;;14.42
15709;BMP180;7954;51.914;8.420;2023-02-03T11:26:28;100828.56;;;14.33
15709;BMP180;7954;51.914;8.420;2023-02-03T11:28:59;100821.19;;;14.40
15709;BMP180;7954;51.914;8.420;2023-02-03T11:31:32;100841.94;;;14.26
15709;BMP180;7954;51.914;8.420;2023-02-03T11:34:03;100827.16;;;14.29
15709;BMP180;7954;51.914;8.420;2023-02-03T11:36:33;100848.69;;;14.37
15709;BMP180;7954;51.914;8.420;2023-02-03T11:39:19;100834.34;;;14.32
15709;BMP180;7954;51.914;8.420;2023-02-03T11:41:47;100839.72;;;14.50
15709;BMP180;7954;51.914;8.420;2023-02-03T11:44:22;100845.25;;;14.47
15709;BMP180;7954;51.914;8.420;2023-02-03T11:46:57;100836.28;;;14.44
15709;BMP180;7954;51.914;8.420;2023-02-03T11:49:53;100842.63;;;14.31
15709;BMP180;7954;51.914;8.420;2023-02-03T11:52:47;100836.22;;;14.07
15709;BMP180;7954;51.914;8.420;2023-02-03T11:55:31;100847.16;;;14.17
15709;BMP180;7954;51.914;8.420;2023-02-03T11:58:18;100849.03;;;14.18
15709;BMP180;7954;51.914;8.420;2023-02-03T12:00:58;100841.94;;;14.26
15709;BMP180;7954;51.914;8.420;2023-02-03T12:06:44;100859.66;;;14.21
15709;BMP180;7954;51.914;8.420;2023-02-03T12:09:26;100860.75;;;14.12
15709;BMP180;7954;51.914;8.420;2023-02-03T12:12:12;100853.13;;;13.86
15709;BMP180;7954;51.914;8.420;2023-02-03T12:14:51;100878.63;;;13.97
15709;BMP180;7954;51.914;8.420;2023-02-03T12:17:51;100891.69;;;14.15
15709;BMP180;7954;51.914;8.420;2023-02-03T12:20:36;100886.69;;;14.00
15709;BMP180;7954;51.914;8.420;2023-02-03T12:23:17;100896.63;;;14.24
15709;BMP180;7954;51.914;8.420;2023-02-03T12:25:59;100913.28;;;14.28
15709;BMP180;7954;51.914;8.420;2023-02-03T12:28:42;100910.63;;;14.12
15709;BMP180;7954;51.914;8.420;2023-02-03T12:31:15;100915.34;;;14.25
15709;BMP180;7954;51.914;8.420;2023-02-03T12:33:48;100893.66;;;14.27
15709;BMP180;7954;51.914;8.420;2023-02-03T12:36:21;100905.69;;;14.28
15709;BMP180;7954;51.914;8.420;2023-02-03T12:38:56;100907.91;;;14.21
15709;BMP180;7954;51.914;8.420;2023-02-03T12:41:30;100903.50;;;14.14
15709;BMP180;7954;51.914;8.420;2023-02-03T12:44:04;100900.38;;;14.26
15709;BMP180;7954;51.914;8.420;2023-02-03T12:46:38;100920.50;;;14.36
15709;BMP180;7954;51.914;8.420;2023-02-03T12:49:13;100894.97;;;14.51
15709;BMP180;7954;51.914;8.420;2023-02-03T12:51:46;100899.44;;;14.68
15709;BMP180;7954;51.914;8.420;2023-02-03T12:54:28;100899.44;;;14.63
15709;BMP180;7954;51.914;8.420;2023-02-03T12:57:09;100890.84;;;14.62
15709;BMP180;7954;51.914;8.420;2023-02-03T12:59:43;100900.19;;;14.73
15709;BMP180;7954;51.914;8.420;2023-02-03T13:02:17;100897.72;;;14.52
15709;BMP180;7954;51.914;8.420;2023-02-03T13:04:52;100908.09;;;14.48
15709;BMP180;7954;51.914;8.420;2023-02-03T13:07:25;100900.69;;;14.39
15709;BMP180;7954;51.914;8.420;2023-02-03T13:09:59;100912.84;;;14.30
15709;BMP180;7954;51.914;8.420;2023-02-03T13:12:36;100912.06;;;14.52
15709;BMP180;7954;51.914;8.420;2023-02-03T13:15:19;100907.75;;;14.62
15709;BMP180;7954;51.914;8.420;2023-02-03T13:17:53;100907.53;;;14.29
15709;BMP180;7954;51.914;8.420;2023-02-03T13:20:23;100884.31;;;14.48
15709;BMP180;7954;51.914;8.420;2023-02-03T13:22:52;100884.25;;;14.74
15709;BMP180;7954;51.914;8.420;2023-02-03T13:25:24;100870.72;;;14.53
15709;BMP180;7954;51.914;8.420;2023-02-03T13:28:05;100869.34;;;14.55
15709;BMP180;7954;51.914;8.420;2023-02-03T13:30:50;100892.03;;;14.59
15709;BMP180;7954;51.914;8.420;2023-02-03T13:33:39;100883.81;;;14.76
15709;BMP180;7954;51.914;8.420;2023-02-03T13:39:54;100876.63;;;14.79
15709;BMP180;7954;51.914;8.420;2023-02-03T13:42:30;100894.50;;;14.90
15709;BMP180;7954;51.914;8.420;2023-02-03T13:45:12;100889.06;;;14.67
15709;BMP180;7954;51.914;8.420;2023-02-03T13:47:45;100887.47;;;14.73
15709;BMP180;7954;51.914;8.420;2023-02-03T13:50:20;100919.94;;;14.53
15709;BMP180;7954;51.914;8.420;2023-02-03T13:52:56;100919.38;;;14.39
15709;BMP180;7954;51.914;8.420;2023-02-03T13:55:33;100914.72;;;14.31
15709;BMP180;7954;51.914;8.420;2023-02-03T13:58:05;100910.06;;;14.29
15709;BMP180;7954;51.914;8.420;2023-02-03T14:00:57;100912.13;;;14.26
15709;BMP180;7954;51.914;8.420;2023-02-03T14:03:43;100926.09;;;14.39
15709;BMP180;7954;51.914;8.420;2023-02-03T14:09:35;100934.06;;;14.25
15709;BMP180;7954;51.914;8.420;2023-02-03T14:15:31;100942.16;;;14.28
15709;BMP180;7954;51.914;8.420;2023-02-03T14:18:31;100972.34;;;14.01
15709;BMP180;7954;51.914;8.420;2023-02-03T14:21:18;100953.75;;;14.37
15709;BMP180;7954;51.914;8.420;2023-02-03T14:24:02;100948.94;;;14.39
15709;BMP180;7954;51.914;8.420;2023-02-03T14:26:38;100944.56;;;14.38
15709;BMP180;7954;51.914;8.420;2023-02-03T14:29:08;100959.47;;;14.62
15709;BMP180;7954;51.914;8.420;2023-02-03T14:31:54;100943.31;;;14.62
15709;BMP180;7954;51.914;8.420;2023-02-03T14:34:29;100951.41;;;14.65
15709;BMP180;7954;51.914;8.420;2023-02-03T14:37:09;100951.63;;;14.61
15709;BMP180;7954;51.914;8.420;2023-02-03T14:39:45;100985.66;;;14.41
15709;BMP180;7954;51.914;8.420;2023-02-03T14:42:30;100973.59;;;14.29
15709;BMP180;7954;51.914;8.420;2023-02-03T14:45:09;100979.59;;;14.35
15709;BMP180;7954;51.914;8.420;2023-02-03T14:47:57;100997.50;;;14.20
15709;BMP180;7954;51.914;8.420;2023-02-03T14:50:34;100988.19;;;14.10
15709;BMP180;7954;51.914;8.420;2023-02-03T14:53:17;100993.63;;;13.81
15709;BMP180;7954;51.914;8.420;2023-02-03T14:55:55;100982.41;;;14.11
15709;BMP180;7954;51.914;8.420;2023-02-03T14:58:28;100995.28;;;14.07
15709;BMP180;7954;51.914;8.420;2023-02-03T15:01:02;101008.09;;;13.97
15709;BMP180;7954;51.914;8.420;2023-02-03T15:03:33;101015.44;;;14.11
15709;BMP180;7954;51.914;8.420;2023-02-03T15:06:04;101031.19;;;13.99
15709;BMP180;7954;51.914;8.420;2023-02-03T15:08:35;101043.88;;;13.99
15709;BMP180;7954;51.914;8.420;2023-02-03T15:11:27;101046.38;;;14.13
15709;BMP180;7954;51.914;8.420;2023-02-03T15:14:13;101049.88;;;14.14
15709;BMP180;7954;51.914;8.420;2023-02-03T15:16:45;101042.72;;;14.17
15709;BMP180;7954;51.914;8.420;2023-02-03T15:19:18;101054.97;;;14.14
15709;BMP180;7954;51.914;8.420;2023-02-03T15:21:47;101043.03;;;13.83
15709;BMP180;7954;51.914;8.420;2023-02-03T15:24:17;101041.75;;;14.11
15709;BMP180;7954;51.914;8.420;2023-02-03T15:26:49;101067.06;;;14.06
15709;BMP180;7954;51.914;8.420;2023-02-03T15:29:20;101074.59;;;14.00
15709;BMP180;7954;51.914;8.420;2023-02-03T15:31:57;101060.63;;;13.87
15709;BMP180;7954;51.914;8.420;2023-02-03T15:34:32;101077.72;;;14.09
15709;BMP180;7954;51.914;8.420;2023-02-03T15:37:06;101069.38;;;13.69
15709;BMP180;7954;51.914;8.420;2023-02-03T15:39:46;101071.69;;;14.08
15709;BMP180;7954;51.914;8.420;2023-02-03T15:42:20;101086.41;;;14.05
15709;BMP180;7954;51.914;8.420;2023-02-03T15:44:53;101078.69;;;13.74
15709;BMP180;7954;51.914;8.420;2023-02-03T15:47:28;101081.25;;;13.94
15709;BMP180;7954;51.914;8.420;2023-02-03T15:50:06;101078.81;;;13.85
15709;BMP180;7954;51.914;8.420;2023-02-03T15:52:38;101084.47;;;13.93
15709;BMP180;7954;51.914;8.420;2023-02-03T15:55:17;101083.19;;;13.65
15709;BMP180;7954;51.914;8.420;2023-02-03T15:57:48;101099.78;;;13.63
15709;BMP180;7954;51.914;8.420;2023-02-03T16:00:30;101104.88;;;13.48
15709;BMP180;7954;51.914;8.420;2023-02-03T16:03:01;101106.38;;;13.57
15709;BMP180;7954;51.914;8.420;2023-02-03T16:05:32;101116.44;;;13.67
15709;BMP180;7954;51.914;8.420;2023-02-03T16:08:25;101106.84;;;13.75
15709;BMP180;7954;51.914;8.420;2023-02-03T16:10:54;101098.16;;;13.99
15709;BMP180;7954;51.914;8.420;2023-02-03T16:13:23;101099.50;;;13.97
15709;BMP180;7954;51.914;8.420;2023-02-03T16:16:03;101097.53;;;14.06
15709;BMP180;7954;51.914;8.420;2023-02-03T16:18:34;101105.78;;;13.99
15709;BMP180;7954;51.914;8.420;2023-02-03T16:21:05;101111.56;;;14.04
15709;BMP180;7954;51.914;8.420;2023-02-03T16:23:33;101121.97;;;14.05
15709;BMP180;7954;51.914;8.420;2023-02-03T16:26:06;101124.47;;;14.00
15709;BMP180;7954;51.914;8.420;2023-02-03T16:28:54;101133.63;;;13.94
15709;BMP180;7954;51.914;8.420;2023-02-03T16:31:44;101145.59;;;13.89
15709;BMP180;7954;51.914;8.420;2023-02-03T16:34:30;101148.59;;;13.92
15709;BMP180;7954;51.914;8.420;2023-02-03T16:37:23;101145.41;;;13.93
15709;BMP180;7954;51.914;8.420;2023-02-03T16:40:09;101155.78;;;13.74
15709;BMP180;7954;51.914;8.420;2023-02-03T16:42:55;101165.38;;;13.86
15709;BMP180;7954;51.914;8.420;2023-02-03T16:45:40;101147.63;;;13.71
15709;BMP180;7954;51.914;8.420;2023-02-03T16:48:26;101156.63;;;13.69
15709;BMP180;7954;51.914;8.420;2023-02-03T16:51:14;101161.13;;;13.61
15709;BMP180;7954;51.914;8.420;2023-02-03T16:53:44;101159.72;;;13.63